sensor_id;sensor_type;location;lat;lon;timestamp;pressure;altitude;pressure_sealevel;temperature;humidity
60170;BME280;46042;49.444;6.862;2023-08-01T00:00:45;97407.63;;;16.29;100.00
60170;BME280;46042;49.444;6.862;2023-08-01T00:03:12;97420.59;;;16.24;100.00
60170;BME280;46042;49.444;6.862;2023-08-01T00:05:40;97437.19;;;16.17;100.00
60170;BME280;46042;49.444;6.862;2023-08-01T00:08:11;97443.19;;;16.19;100.00
60170;BME280;46042;49.444;6.862;2023-08-01T00:10:41;97436.03;;;16.20;100.00
60170;BME280;46042;49.444;6.862;2023-08-01T00:13:08;97429.22;;;16.17;100.00
60170;BME280;46042;49.444;6.862;2023-08-01T00:15:35;97435.22;;;16.19;100.00
60170;BME280;46042;49.444;6.862;2023-08-01T00:18:02;97419.13;;;16.13;100.00
60170;BME280;46042;49.444;6.862;2023-08-01T00:20:29;97397.22;;;16.11;100.00
60170;BME280;46042;49.444;6.862;2023-08-01T00:22:55;97399.88;;;16.11;100.00
60170;BME280;46042;49.444;6.862;2023-08-01T00:25:22;97394.72;;;16.09;100.00
60170;BME280;46042;49.444;6.862;2023-08-01T00:27:49;97399.03;;;16.10;100.00
60170;BME280;46042;49.444;6.862;2023-08-01T00:30:17;97402.03;;;16.07;100.00
60170;BME280;46042;49.444;6.862;2023-08-01T00:32:44;97399.19;;;16.09;100.00
60170;BME280;46042;49.444;6.862;2023-08-01T00:35:11;97387.09;;;16.06;100.00
60170;BME280;46042;49.444;6.862;2023-08-01T00:37:37;97378.94;;;15.99;100.00
60170;BME280;46042;49.444;6.862;2023-08-01T00:40:05;97375.13;;;15.93;100.00
60170;BME280;46042;49.444;6.862;2023-08-01T00:42:35;97370.16;;;15.90;100.00
60170;BME280;46042;49.444;6.862;2023-08-01T00:45:02;97361.34;;;15.90;100.00
60170;BME280;46042;49.444;6.862;2023-08-01T00:47:29;97378.78;;;15.92;100.00
60170;BME280;46042;49.444;6.862;2023-08-01T00:49:56;97384.25;;;15.91;100.00
60170;BME280;46042;49.444;6.862;2023-08-01T00:52:23;97396.22;;;15.95;100.00
60170;BME280;46042;49.444;6.862;2023-08-01T00:54:50;97403.84;;;15.98;100.00
60170;BME280;46042;49.444;6.862;2023-08-01T00:57:17;97401.34;;;15.97;100.00
60170;BME280;46042;49.444;6.862;2023-08-01T00:59:43;97399.19;;;16.00;100.00
60170;BME280;46042;49.444;6.862;2023-08-01T01:02:10;97389.41;;;16.01;100.00
60170;BME280;46042;49.444;6.862;2023-08-01T01:04:38;97380.28;;;16.03;100.00
60170;BME280;46042;49.444;6.862;2023-08-01T01:07:06;97382.78;;;16.05;100.00
60170;BME280;46042;49.444;6.862;2023-08-01T01:09:33;97375.97;;;16.02;100.00
60170;BME280;46042;49.444;6.862;2023-08-01T01:12:00;97381.44;;;16.01;100.00
60170;BME280;46042;49.444;6.862;2023-08-01T01:14:28;97378.28;;;16.05;100.00
60170;BME280;46042;49.444;6.862;2023-08-01T01:16:55;97383.75;;;16.12;100.00
60170;BME280;46042;49.444;6.862;2023-08-01T01:19:22;97373.97;;;16.13;100.00
60170;BME280;46042;49.444;6.862;2023-08-01T01:21:49;97370.78;;;16.17;100.00
60170;BME280;46042;49.444;6.862;2023-08-01T01:24:17;97364.16;;;16.21;100.00
60170;BME280;46042;49.444;6.862;2023-08-01T01:26:46;97351.38;;;16.17;100.00
60170;BME280;46042;49.444;6.862;2023-08-01T01:29:14;97356.53;;;16.18;100.00
60170;BME280;46042;49.444;6.862;2023-08-01T01:31:41;97344.91;;;16.19;100.00
60170;BME280;46042;49.444;6.862;2023-08-01T01:34:08;97339.59;;;16.19;100.00
60170;BME280;46042;49.444;6.862;2023-08-01T01:36:35;97338.59;;;16.20;100.00
60170;BME280;46042;49.444;6.862;2023-08-01T01:39:02;97312.31;;;16.26;100.00
60170;BME280;46042;49.444;6.862;2023-08-01T01:41:28;97319.94;;;16.29;100.00
60170;BME280;46042;49.444;6.862;2023-08-01T01:43:55;97315.97;;;16.25;100.00
60170;BME280;46042;49.444;6.862;2023-08-01T01:46:21;97297.53;;;16.23;100.00
60170;BME280;46042;49.444;6.862;2023-08-01T01:48:48;97326.41;;;16.26;100.00
60170;BME280;46042;49.444;6.862;2023-08-01T01:51:15;97311.31;;;16.27;100.00
60170;BME280;46042;49.444;6.862;2023-08-01T01:53:42;97325.78;;;16.24;100.00
60170;BME280;46042;49.444;6.862;2023-08-01T01:56:09;97321.28;;;16.25;100.00
60170;BME280;46042;49.444;6.862;2023-08-01T01:58:35;97314.63;;;16.29;100.00
60170;BME280;46042;49.444;6.862;2023-08-01T02:01:02;97317.13;;;16.22;100.00
60170;BME280;46042;49.444;6.862;2023-08-01T02:03:29;97312.97;;;16.28;100.00
60170;BME280;46042;49.444;6.862;2023-08-01T02:05:55;97298.19;;;16.25;100.00
60170;BME280;46042;49.444;6.862;2023-08-01T02:08:22;97303.50;;;16.25;100.00
60170;BME280;46042;49.444;6.862;2023-08-01T02:10:49;97291.88;;;16.26;100.00
60170;BME280;46042;49.444;6.862;2023-08-01T02:13:16;97286.75;;;16.25;100.00
60170;BME280;46042;49.444;6.862;2023-08-01T02:15:43;97293.22;;;16.22;100.00
60170;BME280;46042;49.444;6.862;2023-08-01T02:18:09;97280.59;;;16.24;100.00
60170;BME280;46042;49.444;6.862;2023-08-01T02:20:36;97280.44;;;16.26;100.00
60170;BME280;46042;49.444;6.862;2023-08-01T02:23:03;97268.50;;;16.21;100.00
60170;BME280;46042;49.444;6.862;2023-08-01T02:25:29;97264.19;;;16.20;100.00
60170;BME280;46042;49.444;6.862;2023-08-01T02:27:56;97265.00;;;16.21;100.00
60170;BME280;46042;49.444;6.862;2023-08-01T02:30:23;97272.81;;;16.23;100.00
60170;BME280;46042;49.444;6.862;2023-08-01T02:32:50;97254.53;;;16.28;100.00
60170;BME280;46042;49.444;6.862;2023-08-01T02:35:16;97255.56;;;16.18;100.00
60170;BME280;46042;49.444;6.862;2023-08-01T02:37:43;97244.75;;;16.20;100.00
60170;BME280;46042;49.444;6.862;2023-08-01T02:40:10;97249.91;;;16.21;100.00
60170;BME280;46042;49.444;6.862;2023-08-01T02:42:37;97270.81;;;16.16;100.00
60170;BME280;46042;49.444;6.862;2023-08-01T02:45:04;97255.75;;;16.09;100.00
60170;BME280;46042;49.444;6.862;2023-08-01T02:47:31;97262.91;;;16.08;100.00
60170;BME280;46042;49.444;6.862;2023-08-01T02:49:58;97261.06;;;16.09;100.00
60170;BME280;46042;49.444;6.862;2023-08-01T02:52:25;97251.28;;;16.09;100.00
60170;BME280;46042;49.444;6.862;2023-08-01T02:54:53;97256.94;;;16.06;100.00
60170;BME280;46042;49.444;6.862;2023-08-01T02:57:19;97262.06;;;16.07;100.00
60170;BME280;46042;49.444;6.862;2023-08-01T02:59:46;97256.75;;;16.07;100.00
60170;BME280;46042;49.444;6.862;2023-08-01T03:02:13;97246.81;;;16.01;100.00
60170;BME280;46042;49.444;6.862;2023-08-01T03:04:40;97249.47;;;16.01;100.00
60170;BME280;46042;49.444;6.862;2023-08-01T03:07:13;97248.97;;;15.98;100.00
60170;BME280;46042;49.444;6.862;2023-08-01T03:09:39;97242.84;;;15.97;100.00
60170;BME280;46042;49.444;6.862;2023-08-01T03:12:06;97259.28;;;15.92;100.00
60170;BME280;46042;49.444;6.862;2023-08-01T03:14:33;97243.50;;;15.99;100.00
60170;BME280;46042;49.444;6.862;2023-08-01T03:17:00;97242.50;;;16.00;100.00
60170;BME280;46042;49.444;6.862;2023-08-01T03:19:26;97239.84;;;16.00;100.00
60170;BME280;46042;49.444;6.862;2023-08-01T03:21:53;97237.22;;;15.92;100.00
60170;BME280;46042;49.444;6.862;2023-08-01T03:24:20;97239.88;;;15.92;100.00
60170;BME280;46042;49.444;6.862;2023-08-01T03:26:47;97228.41;;;15.91;100.00
60170;BME280;46042;49.444;6.862;2023-08-01T03:29:13;97218.78;;;15.90;100.00
60170;BME280;46042;49.444;6.862;2023-08-01T03:31:40;97213.78;;;15.96;100.00
60170;BME280;46042;49.444;6.862;2023-08-01T03:34:07;97206.16;;;16.01;100.00
60170;BME280;46042;49.444;6.862;2023-08-01T03:36:35;97216.13;;;15.90;100.00
60170;BME280;46042;49.444;6.862;2023-08-01T03:39:03;97213.66;;;15.81;100.00
60170;BME280;46042;49.444;6.862;2023-08-01T03:41:31;97203.84;;;15.81;100.00
60170;BME280;46042;49.444;6.862;2023-08-01T03:43:59;97192.59;;;15.71;100.00
60170;BME280;46042;49.444;6.862;2023-08-01T03:46:25;97200.72;;;15.69;100.00
60170;BME280;46042;49.444;6.862;2023-08-01T03:48:52;97210.03;;;15.65;100.00
60170;BME280;46042;49.444;6.862;2023-08-01T03:51:19;97206.22;;;15.59;100.00
60170;BME280;46042;49.444;6.862;2023-08-01T03:53:46;97201.41;;;15.55;100.00
60170;BME280;46042;49.444;6.862;2023-08-01T03:56:25;97190.94;;;15.61;100.00
60170;BME280;46042;49.444;6.862;2023-08-01T03:58:51;97189.28;;;15.60;100.00
60170;BME280;46042;49.444;6.862;2023-08-01T04:01:18;97191.13;;;15.60;100.00
60170;BME280;46042;49.444;6.862;2023-08-01T04:03:46;97193.13;;;15.58;100.00
60170;BME280;46042;49.444;6.862;2023-08-01T04:06:13;97201.91;;;15.58;100.00
60170;BME280;46042;49.444;6.862;2023-08-01T04:08:41;97192.63;;;15.54;100.00
60170;BME280;46042;49.444;6.862;2023-08-01T04:11:08;97199.94;;;15.52;100.00
60170;BME280;46042;49.444;6.862;2023-08-01T04:13:35;97207.38;;;15.57;100.00
60170;BME280;46042;49.444;6.862;2023-08-01T04:16:01;97207.56;;;15.55;100.00
60170;BME280;46042;49.444;6.862;2023-08-01T04:18:28;97210.38;;;15.54;100.00
60170;BME280;46042;49.444;6.862;2023-08-01T04:20:55;97191.28;;;15.58;100.00
60170;BME280;46042;49.444;6.862;2023-08-01T04:23:22;97201.25;;;15.56;100.00
60170;BME280;46042;49.444;6.862;2023-08-01T04:25:48;97195.09;;;15.56;100.00
60170;BME280;46042;49.444;6.862;2023-08-01T04:28:15;97199.09;;;15.60;100.00
60170;BME280;46042;49.444;6.862;2023-08-01T04:30:42;97191.94;;;15.60;100.00
60170;BME280;46042;49.444;6.862;2023-08-01T04:33:14;97194.78;;;15.59;100.00
60170;BME280;46042;49.444;6.862;2023-08-01T04:35:41;97192.13;;;15.59;100.00
60170;BME280;46042;49.444;6.862;2023-08-01T04:38:08;97194.59;;;15.60;100.00
60170;BME280;46042;49.444;6.862;2023-08-01T04:40:35;97180.97;;;15.63;100.00
60170;BME280;46042;49.444;6.862;2023-08-01T04:43:02;97191.78;;;15.62;100.00
60170;BME280;46042;49.444;6.862;2023-08-01T04:45:29;97189.94;;;15.62;100.00
60170;BME280;46042;49.444;6.862;2023-08-01T04:47:56;97195.59;;;15.59;100.00
60170;BME280;46042;49.444;6.862;2023-08-01T04:50:22;97198.75;;;15.55;100.00
60170;BME280;46042;49.444;6.862;2023-08-01T04:52:49;97197.75;;;15.56;100.00
60170;BME280;46042;49.444;6.862;2023-08-01T04:55:16;97195.28;;;15.54;100.00
60170;BME280;46042;49.444;6.862;2023-08-01T04:57:42;97199.75;;;15.62;100.00
60170;BME280;46042;49.444;6.862;2023-08-01T05:00:10;97196.44;;;15.60;100.00
60170;BME280;46042;49.444;6.862;2023-08-01T05:02:37;97196.09;;;15.63;100.00
60170;BME280;46042;49.444;6.862;2023-08-01T05:05:04;97203.06;;;15.64;100.00
60170;BME280;46042;49.444;6.862;2023-08-01T05:07:31;97231.41;;;15.63;100.00
60170;BME280;46042;49.444;6.862;2023-08-01T05:09:57;97217.34;;;15.55;100.00
60170;BME280;46042;49.444;6.862;2023-08-01T05:12:24;97201.59;;;15.53;100.00
60170;BME280;46042;49.444;6.862;2023-08-01T05:14:51;97204.59;;;15.50;100.00
60170;BME280;46042;49.444;6.862;2023-08-01T05:17:17;97197.44;;;15.50;100.00
60170;BME280;46042;49.444;6.862;2023-08-01T05:19:44;97176.53;;;15.56;100.00
60170;BME280;46042;49.444;6.862;2023-08-01T05:22:11;97192.94;;;15.59;100.00
60170;BME280;46042;49.444;6.862;2023-08-01T05:24:37;97190.59;;;15.64;100.00
60170;BME280;46042;49.444;6.862;2023-08-01T05:27:04;97196.09;;;15.63;100.00
60170;BME280;46042;49.444;6.862;2023-08-01T05:29:31;97211.19;;;15.62;100.00
60170;BME280;46042;49.444;6.862;2023-08-01T05:31:58;97216.34;;;15.64;100.00
60170;BME280;46042;49.444;6.862;2023-08-01T05:34:24;97211.84;;;15.64;100.00
60170;BME280;46042;49.444;6.862;2023-08-01T05:36:51;97219.50;;;15.68;100.00
60170;BME280;46042;49.444;6.862;2023-08-01T05:39:20;97214.50;;;15.73;100.00
60170;BME280;46042;49.444;6.862;2023-08-01T05:41:46;97198.72;;;15.71;100.00
60170;BME280;46042;49.444;6.862;2023-08-01T05:44:13;97210.00;;;15.73;100.00
60170;BME280;46042;49.444;6.862;2023-08-01T05:46:40;97225.91;;;15.82;100.00
60170;BME280;46042;49.444;6.862;2023-08-01T05:49:07;97225.22;;;15.88;100.00
60170;BME280;46042;49.444;6.862;2023-08-01T05:51:34;97225.09;;;15.89;100.00
60170;BME280;46042;49.444;6.862;2023-08-01T05:54:01;97234.22;;;15.95;100.00
60170;BME280;46042;49.444;6.862;2023-08-01T05:56:27;97227.22;;;16.02;100.00
60170;BME280;46042;49.444;6.862;2023-08-01T05:58:54;97221.59;;;15.97;100.00
60170;BME280;46042;49.444;6.862;2023-08-01T06:01:22;97230.56;;;15.96;100.00
60170;BME280;46042;49.444;6.862;2023-08-01T06:03:48;97225.06;;;15.98;100.00
60170;BME280;46042;49.444;6.862;2023-08-01T06:06:15;97229.53;;;16.05;100.00
60170;BME280;46042;49.444;6.862;2023-08-01T06:08:42;97228.06;;;16.03;100.00
60170;BME280;46042;49.444;6.862;2023-08-01T06:11:09;97224.72;;;16.09;100.00
60170;BME280;46042;49.444;6.862;2023-08-01T06:13:35;97235.34;;;16.09;100.00
60170;BME280;46042;49.444;6.862;2023-08-01T06:16:02;97236.34;;;16.08;100.00
60170;BME280;46042;49.444;6.862;2023-08-01T06:18:29;97232.19;;;16.05;100.00
60170;BME280;46042;49.444;6.862;2023-08-01T06:20:56;97243.84;;;15.96;100.00
60170;BME280;46042;49.444;6.862;2023-08-01T06:23:23;97236.34;;;16.00;100.00
60170;BME280;46042;49.444;6.862;2023-08-01T06:25:49;97244.81;;;16.03;100.00
60170;BME280;46042;49.444;6.862;2023-08-01T06:28:16;97246.66;;;15.95;100.00
60170;BME280;46042;49.444;6.862;2023-08-01T06:30:43;97249.50;;;15.93;100.00
60170;BME280;46042;49.444;6.862;2023-08-01T06:33:09;97252.63;;;15.97;100.00
60170;BME280;46042;49.444;6.862;2023-08-01T06:35:36;97257.44;;;16.10;100.00
60170;BME280;46042;49.444;6.862;2023-08-01T06:38:03;97259.88;;;16.19;100.00
60170;BME280;46042;49.444;6.862;2023-08-01T06:40:29;97262.00;;;16.32;100.00
60170;BME280;46042;49.444;6.862;2023-08-01T06:42:56;97260.06;;;16.49;100.00
60170;BME280;46042;49.444;6.862;2023-08-01T06:45:23;97265.22;;;16.51;100.00
60170;BME280;46042;49.444;6.862;2023-08-01T06:47:51;97273.34;;;16.58;100.00
60170;BME280;46042;49.444;6.862;2023-08-01T06:50:18;97281.81;;;16.53;100.00
60170;BME280;46042;49.444;6.862;2023-08-01T06:52:44;97288.81;;;16.54;100.00
60170;BME280;46042;49.444;6.862;2023-08-01T06:55:11;97288.38;;;16.34;100.00
60170;BME280;46042;49.444;6.862;2023-08-01T06:57:38;97289.72;;;16.30;100.00
60170;BME280;46042;49.444;6.862;2023-08-01T07:00:05;97295.88;;;16.30;100.00
60170;BME280;46042;49.444;6.862;2023-08-01T07:02:32;97293.81;;;16.49;100.00
60170;BME280;46042;49.444;6.862;2023-08-01T07:04:59;97298.28;;;16.57;100.00
60170;BME280;46042;49.444;6.862;2023-08-01T07:07:26;97297.72;;;16.70;100.00
60170;BME280;46042;49.444;6.862;2023-08-01T07:09:52;97304.81;;;16.77;100.00
60170;BME280;46042;49.444;6.862;2023-08-01T07:12:19;97305.22;;;16.98;100.00
60170;BME280;46042;49.444;6.862;2023-08-01T07:14:46;97313.88;;;17.00;100.00
60170;BME280;46042;49.444;6.862;2023-08-01T07:17:12;97324.22;;;16.86;100.00
60170;BME280;46042;49.444;6.862;2023-08-01T07:19:39;97329.31;;;16.64;100.00
60170;BME280;46042;49.444;6.862;2023-08-01T07:22:06;97329.91;;;16.75;100.00
60170;BME280;46042;49.444;6.862;2023-08-01T07:24:32;97340.31;;;16.93;100.00
60170;BME280;46042;49.444;6.862;2023-08-01T07:26:59;97344.72;;;17.17;100.00
60170;BME280;46042;49.444;6.862;2023-08-01T07:29:26;97348.91;;;17.35;100.00
60170;BME280;46042;49.444;6.862;2023-08-01T07:31:52;97350.34;;;17.46;100.00
60170;BME280;46042;49.444;6.862;2023-08-01T07:34:19;97352.59;;;17.57;100.00
60170;BME280;46042;49.444;6.862;2023-08-01T07:36:48;97363.78;;;17.76;100.00
60170;BME280;46042;49.444;6.862;2023-08-01T07:39:17;97352.41;;;17.59;100.00
60170;BME280;46042;49.444;6.862;2023-08-01T07:41:44;97364.13;;;17.49;100.00
60170;BME280;46042;49.444;6.862;2023-08-01T07:44:11;97372.09;;;17.26;100.00
60170;BME280;46042;49.444;6.862;2023-08-01T07:46:37;97373.41;;;17.30;100.00
60170;BME280;46042;49.444;6.862;2023-08-01T07:49:05;97376.19;;;17.60;100.00
60170;BME280;46042;49.444;6.862;2023-08-01T07:51:31;97383.72;;;17.80;100.00
60170;BME280;46042;49.444;6.862;2023-08-01T07:54:00;97371.50;;;17.86;100.00
60170;BME280;46042;49.444;6.862;2023-08-01T07:56:27;97375.47;;;18.13;100.00
60170;BME280;46042;49.444;6.862;2023-08-01T07:58:53;97376.13;;;18.15;100.00
60170;BME280;46042;49.444;6.862;2023-08-01T08:01:20;97363.94;;;18.51;100.00
60170;BME280;46042;49.444;6.862;2023-08-01T08:03:47;97381.13;;;18.63;100.00
60170;BME280;46042;49.444;6.862;2023-08-01T08:06:13;97380.63;;;18.90;100.00
60170;BME280;46042;49.444;6.862;2023-08-01T08:08:40;97376.59;;;19.09;100.00
60170;BME280;46042;49.444;6.862;2023-08-01T08:11:07;97372.47;;;19.65;100.00
60170;BME280;46042;49.444;6.862;2023-08-01T08:13:34;97378.25;;;19.10;100.00
60170;BME280;46042;49.444;6.862;2023-08-01T08:16:00;97370.88;;;19.49;100.00
60170;BME280;46042;49.444;6.862;2023-08-01T08:18:27;97374.91;;;19.23;100.00
60170;BME280;46042;49.444;6.862;2023-08-01T08:20:55;97380.59;;;19.35;100.00
60170;BME280;46042;49.444;6.862;2023-08-01T08:23:23;97394.25;;;19.10;100.00
60170;BME280;46042;49.444;6.862;2023-08-01T08:25:50;97392.41;;;19.26;100.00
60170;BME280;46042;49.444;6.862;2023-08-01T08:28:27;97387.72;;;19.50;100.00
60170;BME280;46042;49.444;6.862;2023-08-01T08:30:55;97398.34;;;19.06;95.61
60170;BME280;46042;49.444;6.862;2023-08-01T08:33:22;97397.19;;;19.30;98.51
60170;BME280;46042;49.444;6.862;2023-08-01T08:35:49;97398.38;;;19.65;100.00
60170;BME280;46042;49.444;6.862;2023-08-01T08:38:17;97403.56;;;19.73;100.00
60170;BME280;46042;49.444;6.862;2023-08-01T08:40:52;97403.50;;;19.44;99.59
60170;BME280;46042;49.444;6.862;2023-08-01T08:43:23;97407.00;;;19.88;100.00
60170;BME280;46042;49.444;6.862;2023-08-01T08:45:53;97418.78;;;20.16;100.00
60170;BME280;46042;49.444;6.862;2023-08-01T08:48:24;97416.38;;;20.21;100.00
60170;BME280;46042;49.444;6.862;2023-08-01T08:50:52;97415.13;;;19.95;96.58
60170;BME280;46042;49.444;6.862;2023-08-01T08:53:21;97414.31;;;19.80;96.52
60170;BME280;46042;49.444;6.862;2023-08-01T08:55:48;97415.34;;;20.51;100.00
60170;BME280;46042;49.444;6.862;2023-08-01T08:58:16;97412.72;;;20.86;100.00
60170;BME280;46042;49.444;6.862;2023-08-01T09:00:44;97406.84;;;21.11;94.30
60170;BME280;46042;49.444;6.862;2023-08-01T09:03:11;97405.66;;;21.20;91.06
60170;BME280;46042;49.444;6.862;2023-08-01T09:05:50;97403.78;;;21.21;91.97
60170;BME280;46042;49.444;6.862;2023-08-01T09:08:21;97413.81;;;21.05;92.77
60170;BME280;46042;49.444;6.862;2023-08-01T09:10:48;97424.75;;;20.40;87.05
60170;BME280;46042;49.444;6.862;2023-08-01T09:13:15;97419.06;;;20.21;91.38
60170;BME280;46042;49.444;6.862;2023-08-01T09:15:42;97435.59;;;20.88;100.00
60170;BME280;46042;49.444;6.862;2023-08-01T09:18:10;97423.34;;;21.14;82.77
60170;BME280;46042;49.444;6.862;2023-08-01T09:20:45;97435.06;;;20.78;87.30
60170;BME280;46042;49.444;6.862;2023-08-01T09:23:12;97430.78;;;20.27;83.83
60170;BME280;46042;49.444;6.862;2023-08-01T09:25:39;97429.75;;;20.21;94.86
60170;BME280;46042;49.444;6.862;2023-08-01T09:28:22;97428.06;;;19.76;86.03
60170;BME280;46042;49.444;6.862;2023-08-01T09:30:54;97430.28;;;19.51;88.55
60170;BME280;46042;49.444;6.862;2023-08-01T09:33:22;97431.75;;;19.54;94.66
60170;BME280;46042;49.444;6.862;2023-08-01T09:35:50;97439.91;;;19.30;88.53
60170;BME280;46042;49.444;6.862;2023-08-01T09:38:17;97442.03;;;19.05;91.23
60170;BME280;46042;49.444;6.862;2023-08-01T09:40:45;97447.66;;;19.10;97.80
60170;BME280;46042;49.444;6.862;2023-08-01T09:43:13;97446.63;;;18.96;94.39
60170;BME280;46042;49.444;6.862;2023-08-01T09:45:53;97449.19;;;19.35;95.05
60170;BME280;46042;49.444;6.862;2023-08-01T09:48:23;97459.63;;;18.99;97.18
60170;BME280;46042;49.444;6.862;2023-08-01T09:50:50;97467.59;;;18.84;95.44
60170;BME280;46042;49.444;6.862;2023-08-01T09:53:16;97475.56;;;18.69;95.07
60170;BME280;46042;49.444;6.862;2023-08-01T09:55:44;97471.53;;;18.73;99.49
60170;BME280;46042;49.444;6.862;2023-08-01T09:58:13;97475.59;;;18.84;99.86
60170;BME280;46042;49.444;6.862;2023-08-01T10:00:41;97482.72;;;19.07;100.00
60170;BME280;46042;49.444;6.862;2023-08-01T10:03:10;97486.81;;;18.80;96.69
60170;BME280;46042;49.444;6.862;2023-08-01T10:05:38;97491.03;;;18.74;94.09
60170;BME280;46042;49.444;6.862;2023-08-01T10:08:07;97495.84;;;18.79;99.06
60170;BME280;46042;49.444;6.862;2023-08-01T10:10:34;97486.66;;;18.43;98.80
60170;BME280;46042;49.444;6.862;2023-08-01T10:13:01;97492.66;;;18.22;100.00
60170;BME280;46042;49.444;6.862;2023-08-01T10:15:28;97501.03;;;17.87;100.00
60170;BME280;46042;49.444;6.862;2023-08-01T10:17:57;97500.06;;;17.80;100.00
60170;BME280;46042;49.444;6.862;2023-08-01T10:20:25;97494.59;;;17.49;100.00
60170;BME280;46042;49.444;6.862;2023-08-01T10:22:52;97496.81;;;17.38;100.00
60170;BME280;46042;49.444;6.862;2023-08-01T10:25:20;97486.88;;;18.56;100.00
60170;BME280;46042;49.444;6.862;2023-08-01T10:28:01;97481.72;;;19.60;100.00
60170;BME280;46042;49.444;6.862;2023-08-01T10:30:29;97484.28;;;20.05;100.00
60170;BME280;46042;49.444;6.862;2023-08-01T10:32:59;97483.78;;;20.67;100.00
60170;BME280;46042;49.444;6.862;2023-08-01T10:35:37;97482.56;;;21.33;100.00
60170;BME280;46042;49.444;6.862;2023-08-01T10:38:05;97482.66;;;21.53;89.34
60170;BME280;46042;49.444;6.862;2023-08-01T10:40:35;97481.72;;;20.91;85.94
60170;BME280;46042;49.444;6.862;2023-08-01T10:43:03;97477.06;;;21.06;88.17
60170;BME280;46042;49.444;6.862;2023-08-01T10:45:29;97473.50;;;21.34;96.47
60170;BME280;46042;49.444;6.862;2023-08-01T10:48:10;97468.56;;;22.00;93.03
60170;BME280;46042;49.444;6.862;2023-08-01T10:50:37;97471.63;;;21.77;90.47
60170;BME280;46042;49.444;6.862;2023-08-01T10:53:07;97468.38;;;21.46;86.09
60170;BME280;46042;49.444;6.862;2023-08-01T10:55:42;97471.72;;;21.06;78.54
60170;BME280;46042;49.444;6.862;2023-08-01T10:58:09;97471.41;;;20.66;89.38
60170;BME280;46042;49.444;6.862;2023-08-01T11:00:35;97467.53;;;20.40;90.50
60170;BME280;46042;49.444;6.862;2023-08-01T11:03:02;97472.88;;;20.18;91.36
60170;BME280;46042;49.444;6.862;2023-08-01T11:05:29;97484.44;;;21.04;88.40
60170;BME280;46042;49.444;6.862;2023-08-01T11:08:01;97476.47;;;21.59;85.23
60170;BME280;46042;49.444;6.862;2023-08-01T11:10:30;97484.19;;;21.76;81.66
60170;BME280;46042;49.444;6.862;2023-08-01T11:12:59;97485.03;;;21.77;79.61
60170;BME280;46042;49.444;6.862;2023-08-01T11:15:26;97475.88;;;21.64;76.45
60170;BME280;46042;49.444;6.862;2023-08-01T11:17:53;97474.94;;;21.85;76.01
60170;BME280;46042;49.444;6.862;2023-08-01T11:20:23;97476.22;;;22.10;79.81
60170;BME280;46042;49.444;6.862;2023-08-01T11:23:00;97476.22;;;22.43;80.34
60170;BME280;46042;49.444;6.862;2023-08-01T11:28:07;97479.75;;;22.30;77.99
60170;BME280;46042;49.444;6.862;2023-08-01T11:30:35;97470.06;;;22.36;76.46
60170;BME280;46042;49.444;6.862;2023-08-01T11:33:02;97473.69;;;21.74;78.09
60170;BME280;46042;49.444;6.862;2023-08-01T11:35:40;97477.16;;;21.26;76.81
60170;BME280;46042;49.444;6.862;2023-08-01T11:38:07;97479.31;;;21.02;79.78
60170;BME280;46042;49.444;6.862;2023-08-01T11:40:34;97495.78;;;20.99;79.13
60170;BME280;46042;49.444;6.862;2023-08-01T11:43:01;97487.72;;;20.71;79.39
60170;BME280;46042;49.444;6.862;2023-08-01T11:45:29;97499.09;;;20.51;79.82
60170;BME280;46042;49.444;6.862;2023-08-01T11:47:56;97494.41;;;20.31;83.58
60170;BME280;46042;49.444;6.862;2023-08-01T11:50:25;97500.06;;;20.00;83.50
60170;BME280;46042;49.444;6.862;2023-08-01T11:52:52;97499.38;;;19.76;88.31
60170;BME280;46042;49.444;6.862;2023-08-01T11:55:27;97488.63;;;19.69;90.05
60170;BME280;46042;49.444;6.862;2023-08-01T11:57:57;97493.78;;;20.08;88.27
60170;BME280;46042;49.444;6.862;2023-08-01T12:00:26;97501.97;;;20.06;86.29
60170;BME280;46042;49.444;6.862;2023-08-01T12:03:07;97494.97;;;20.05;87.72
60170;BME280;46042;49.444;6.862;2023-08-01T12:05:40;97500.75;;;19.87;85.97
60170;BME280;46042;49.444;6.862;2023-08-01T12:08:15;97492.63;;;19.43;89.75
60170;BME280;46042;49.444;6.862;2023-08-01T12:10:43;97497.19;;;19.13;89.05
60170;BME280;46042;49.444;6.862;2023-08-01T12:13:21;97486.06;;;19.61;93.79
60170;BME280;46042;49.444;6.862;2023-08-01T12:15:53;97487.38;;;20.52;85.32
60170;BME280;46042;49.444;6.862;2023-08-01T12:21:10;97487.56;;;22.39;87.74
60170;BME280;46042;49.444;6.862;2023-08-01T12:23:37;97499.56;;;22.56;84.29
60170;BME280;46042;49.444;6.862;2023-08-01T12:26:06;97487.75;;;22.03;75.86
60170;BME280;46042;49.444;6.862;2023-08-01T12:28:33;97487.97;;;22.02;77.42
60170;BME280;46042;49.444;6.862;2023-08-01T12:31:00;97485.75;;;21.64;72.35
60170;BME280;46042;49.444;6.862;2023-08-01T12:33:26;97486.34;;;22.35;75.64
60170;BME280;46042;49.444;6.862;2023-08-01T12:35:54;97479.28;;;22.07;70.89
60170;BME280;46042;49.444;6.862;2023-08-01T12:38:20;97471.63;;;21.97;72.85
60170;BME280;46042;49.444;6.862;2023-08-01T12:40:47;97477.22;;;21.95;68.04
60170;BME280;46042;49.444;6.862;2023-08-01T12:43:14;97491.28;;;22.17;66.68
60170;BME280;46042;49.444;6.862;2023-08-01T12:45:43;97483.28;;;21.62;68.20
60170;BME280;46042;49.444;6.862;2023-08-01T12:48:10;97471.66;;;22.10;69.89
60170;BME280;46042;49.444;6.862;2023-08-01T12:50:36;97476.66;;;22.40;66.22
60170;BME280;46042;49.444;6.862;2023-08-01T12:53:03;97480.59;;;21.55;67.86
60170;BME280;46042;49.444;6.862;2023-08-01T12:55:30;97474.69;;;21.25;72.26
60170;BME280;46042;49.444;6.862;2023-08-01T12:57:57;97496.16;;;21.87;65.48
60170;BME280;46042;49.444;6.862;2023-08-01T13:00:23;97473.28;;;21.84;65.23